Terminal Aerodrome Forecast
Issued by NWS Glasgow, MT

Home | Current Version | Previous Version | Text Only | Print | Product List | Glossary On
Versions: 1 2 3 4 5 6 7 8 9 10 11 12 13 14 15 16 17 18 19
000
FTUS45 KGGW 261700
TAFGGW
TAF
KGGW 261721Z 2618/2718 12007KT P6SM BKN017 OVC045
     FM270300 11011KT P6SM OVC015
     FM270600 11015KT 6SM -SN OVC015
     FM271200 11019KT 4SM -SN BR OVC007=

USA.gov is the U.S. government's official web portal to all federal, state and local government web resources and services.